Terminal Aerodrome Forecast
Issued by NWS Wilmington, OH

Current Version | Previous Version | Graphics & Text | Print | Product List | Glossary On
Versions: 1 2 3 4 5 6 7 8 9 10 11 12 13 14 15 16 17 18 19 20 21 22 23
202
FTUS41 KILN 111743
TAFILN
TAF
KILN 111743Z 1118/1218 20010KT P6SM BKN200
     FM120600 25012G22KT P6SM BKN100
     FM120900 29015G25KT P6SM VCSH OVC018
     FM121300 31016G32KT 3SM -SHSN OVC018=

USA.gov is the U.S. government's official web portal to all federal, state and local government web resources and services.